Time;durP1;ratioP1;P1;durP2;ratioP2;P2;SDS_P1;SDS_P2;PMS_P1;PMS_P2;Temp;Humidity;BMP_temperature;BMP_pressure;BME280_temperature;BME280_humidity;BME280_pressure;Samples;Min_cycle;Max_cycle;Signal;HPM_P1;HPM_P2
2021/05/14 00:02:04;;;;;;;24.77;16.70;;;;;;;;;;4995201;28;20034;-70
2021/05/14 00:04:30;;;;;;;23.38;17.00;;;;;;;;;;4991276;28;20117;-70
2021/05/14 00:06:57;;;;;;;22.35;16.33;;;;;;;;;;4991700;28;20019;-70
2021/05/14 00:09:41;;;;;;;22.38;16.63;;;;;;;;;;4993399;28;20026;-70
2021/05/14 00:12:08;;;;;;;25.90;16.33;;;;;;;;;;4988497;28;20023;-70
2021/05/14 00:14:34;;;;;;;22.17;15.95;;;;;;;;;;4992734;28;20554;-70
2021/05/14 00:17:00;;;;;;;24.30;16.58;;;;;;;;;;4997931;28;20114;-70
2021/05/14 00:19:29;;;;;;;28.40;16.30;;;;;;;;;;4991080;28;20495;-70
2021/05/14 00:21:55;;;;;;;25.38;16.73;;;;;;;;;;4990376;28;20037;-70
2021/05/14 00:24:21;;;;;;;22.55;15.52;;;;;;;;;;4992174;28;20372;-70
2021/05/14 00:26:47;;;;;;;22.30;16.20;;;;;;;;;;4991047;28;20022;-70
2021/05/14 00:29:16;;;;;;;20.98;14.60;;;;;;;;;;4989789;28;20018;-70
2021/05/14 00:31:50;;;;;;;24.17;15.70;;;;;;;;;;4991368;28;20038;-70
2021/05/14 00:34:16;;;;;;;22.23;16.52;;;;;;;;;;4997774;28;20034;-70
2021/05/14 00:36:43;;;;;;;23.48;16.77;;;;;;;;;;4991006;28;20117;-70
2021/05/14 00:39:11;;;;;;;29.40;16.15;;;;;;;;;;4999014;28;20018;-70
2021/05/14 00:41:37;;;;;;;21.30;15.63;;;;;;;;;;4991123;28;20852;-70
2021/05/14 00:44:22;;;;;;;26.63;16.00;;;;;;;;;;4990356;28;20141;-70
2021/05/14 00:46:48;;;;;;;24.10;15.88;;;;;;;;;;4991796;28;20057;-70
2021/05/14 00:49:14;;;;;;;23.00;15.80;;;;;;;;;;4972740;28;20049;-70
2021/05/14 00:51:42;;;;;;;25.45;15.57;;;;;;;;;;4973478;28;20058;-70
2021/05/14 00:54:08;;;;;;;21.58;14.95;;;;;;;;;;4990580;28;20029;-70
2021/05/14 00:56:34;;;;;;;25.20;17.27;;;;;;;;;;4990779;28;20038;-70
2021/05/14 00:59:02;;;;;;;24.70;16.40;;;;;;;;;;4990815;28;20030;-70
2021/05/14 01:01:28;;;;;;;22.08;15.55;;;;;;;;;;4990554;28;20030;-70
2021/05/14 01:03:55;;;;;;;24.45;16.52;;;;;;;;;;4973137;28;20034;-70
2021/05/14 01:06:21;;;;;;;28.42;16.55;;;;;;;;;;4982772;28;20014;-70
2021/05/14 01:09:03;;;;;;;22.63;16.38;;;;;;;;;;4990665;28;20030;-70
2021/05/14 01:11:32;;;;;;;22.35;16.13;;;;;;;;;;4987306;28;20113;-70
2021/05/14 01:13:58;;;;;;;32.45;15.98;;;;;;;;;;4992007;28;20045;-70
2021/05/14 01:16:24;;;;;;;23.60;15.23;;;;;;;;;;4991212;28;20022;-70
2021/05/14 01:18:51;;;;;;;22.50;15.80;;;;;;;;;;4996244;28;20073;-70
2021/05/14 01:21:17;;;;;;;25.35;15.73;;;;;;;;;;4989991;28;20070;-70
2021/05/14 01:23:43;;;;;;;22.30;16.02;;;;;;;;;;4990093;28;20025;-70
2021/05/14 01:26:10;;;;;;;21.90;15.80;;;;;;;;;;4990054;28;20027;-70
2021/05/14 01:28:36;;;;;;;23.27;15.30;;;;;;;;;;4990661;28;20109;-70
2021/05/14 01:31:02;;;;;;;30.45;16.42;;;;;;;;;;4990559;28;20101;-70
2021/05/14 01:33:27;;;;;;;22.42;15.95;;;;;;;;;;4990260;28;20461;-70
2021/05/14 01:35:53;;;;;;;23.67;15.27;;;;;;;;;;4995740;28;20387;-70
2021/05/14 01:38:19;;;;;;;24.73;16.27;;;;;;;;;;4991450;28;20503;-70
2021/05/14 01:40:45;;;;;;;24.13;17.13;;;;;;;;;;4990176;28;20031;-70
2021/05/14 01:43:11;;;;;;;25.10;16.33;;;;;;;;;;4990442;28;20033;-70
2021/05/14 01:45:37;;;;;;;22.48;15.32;;;;;;;;;;4989852;28;20214;-70
2021/05/14 01:48:03;;;;;;;20.52;15.38;;;;;;;;;;4992261;28;20507;-70
2021/05/14 01:50:29;;;;;;;23.17;17.58;;;;;;;;;;4994921;28;20053;-70
2021/05/14 01:52:55;;;;;;;24.13;16.05;;;;;;;;;;4993452;28;20163;-71
2021/05/14 01:55:21;;;;;;;23.02;15.57;;;;;;;;;;4994286;28;20034;-70
2021/05/14 01:57:47;;;;;;;23.65;16.00;;;;;;;;;;4996680;28;20022;-70
2021/05/14 02:00:13;;;;;;;20.73;15.65;;;;;;;;;;4976332;28;20480;-70
2021/05/14 02:02:39;;;;;;;27.15;16.85;;;;;;;;;;4995358;28;20031;-70
2021/05/14 02:05:05;;;;;;;26.88;16.85;;;;;;;;;;4992313;28;20030;-70
2021/05/14 02:07:31;;;;;;;27.17;17.55;;;;;;;;;;4993738;28;20023;-70
2021/05/14 02:09:57;;;;;;;24.65;16.60;;;;;;;;;;4985667;28;20496;-70
2021/05/14 02:12:23;;;;;;;21.85;15.98;;;;;;;;;;4993613;28;20026;-70
2021/05/14 02:14:49;;;;;;;27.40;17.00;;;;;;;;;;4993464;28;20038;-70
2021/05/14 02:17:15;;;;;;;27.75;17.13;;;;;;;;;;4994201;28;20106;-70
2021/05/14 02:19:41;;;;;;;29.75;17.63;;;;;;;;;;4993124;28;20026;-70
2021/05/14 02:22:07;;;;;;;25.65;17.52;;;;;;;;;;4993485;28;20034;-70
2021/05/14 02:24:33;;;;;;;25.98;18.00;;;;;;;;;;5001979;28;20034;-70
2021/05/14 02:26:59;;;;;;;24.73;17.85;;;;;;;;;;4973492;28;20026;-70
2021/05/14 02:29:25;;;;;;;26.02;16.92;;;;;;;;;;4993624;28;20105;-70
2021/05/14 02:31:52;;;;;;;27.70;17.65;;;;;;;;;;4993102;28;20447;-70
2021/05/14 02:34:17;;;;;;;25.63;17.13;;;;;;;;;;4994245;28;20054;-70
2021/05/14 02:36:43;;;;;;;30.33;17.75;;;;;;;;;;4992520;28;20042;-70
2021/05/14 02:39:10;;;;;;;26.63;17.25;;;;;;;;;;4992678;28;20057;-70
2021/05/14 02:41:37;;;;;;;25.67;17.13;;;;;;;;;;4993688;28;20053;-70
2021/05/14 02:44:03;;;;;;;22.55;16.52;;;;;;;;;;4992891;28;20027;-70
2021/05/14 02:46:29;;;;;;;21.70;15.45;;;;;;;;;;4993411;28;20064;-70
2021/05/14 02:48:55;;;;;;;25.23;17.38;;;;;;;;;;4992881;28;20667;-70
2021/05/14 02:51:21;;;;;;;23.80;15.85;;;;;;;;;;4992960;28;20063;-70
2021/05/14 02:53:47;;;;;;;26.52;16.85;;;;;;;;;;5000229;28;20395;-70
2021/05/14 02:56:13;;;;;;;26.92;18.00;;;;;;;;;;4992809;28;20025;-70
2021/05/14 02:58:39;;;;;;;23.70;16.48;;;;;;;;;;4975203;28;20527;-70
2021/05/14 03:01:05;;;;;;;26.33;17.75;;;;;;;;;;4994945;28;20536;-70
2021/05/14 03:03:31;;;;;;;26.65;16.05;;;;;;;;;;4993293;28;20101;-70
2021/05/14 03:05:57;;;;;;;23.80;17.50;;;;;;;;;;4974855;28;20498;-70
2021/05/14 03:08:23;;;;;;;26.23;17.20;;;;;;;;;;4991549;28;20019;-70
2021/05/14 03:10:48;;;;;;;23.63;17.02;;;;;;;;;;4992784;28;20505;-70
2021/05/14 03:13:14;;;;;;;25.17;17.15;;;;;;;;;;4992507;28;20065;-70
2021/05/14 03:15:40;;;;;;;27.20;17.50;;;;;;;;;;4992500;28;20101;-70
2021/05/14 03:18:06;;;;;;;26.58;17.85;;;;;;;;;;4989201;28;20509;-70
2021/05/14 03:20:32;;;;;;;24.08;17.75;;;;;;;;;;4992907;28;20026;-70
2021/05/14 03:22:58;;;;;;;24.73;16.63;;;;;;;;;;4992401;28;20042;-70
2021/05/14 03:25:24;;;;;;;27.15;17.58;;;;;;;;;;4992040;28;20034;-70
2021/05/14 03:27:50;;;;;;;26.83;18.48;;;;;;;;;;4992216;28;20476;-70
2021/05/14 03:30:16;;;;;;;28.30;18.65;;;;;;;;;;4984042;28;20038;-70
2021/05/14 03:32:44;;;;;;;26.73;18.63;;;;;;;;;;4992225;28;20026;-70
2021/05/14 03:35:10;;;;;;;30.63;18.33;;;;;;;;;;4991858;28;20472;-70
2021/05/14 03:37:37;;;;;;;32.72;17.30;;;;;;;;;;4992930;28;20035;-70
2021/05/14 03:40:14;;;;;;;25.10;17.55;;;;;;;;;;4997981;28;20023;-70
2021/05/14 03:42:40;;;;;;;31.65;19.80;;;;;;;;;;5011718;28;20109;-70
2021/05/14 03:45:07;;;;;;;23.75;17.98;;;;;;;;;;4994102;28;20038;-70
2021/05/14 03:47:33;;;;;;;28.30;18.33;;;;;;;;;;4992076;28;20116;-70
2021/05/14 03:49:59;;;;;;;27.45;19.27;;;;;;;;;;4992475;28;20102;-70
2021/05/14 03:52:25;;;;;;;28.67;19.25;;;;;;;;;;4991356;28;20335;-70
2021/05/14 03:54:51;;;;;;;26.48;18.00;;;;;;;;;;4992023;28;20030;-70
2021/05/14 03:57:17;;;;;;;30.92;19.08;;;;;;;;;;4991608;28;20030;-70
2021/05/14 03:59:43;;;;;;;25.83;17.75;;;;;;;;;;4992065;28;20026;-70
2021/05/14 04:02:10;;;;;;;27.60;18.50;;;;;;;;;;4991611;28;20027;-70
2021/05/14 04:04:36;;;;;;;27.75;18.08;;;;;;;;;;4991835;28;20019;-73
2021/05/14 04:07:04;;;;;;;27.65;17.27;;;;;;;;;;4991623;28;20026;-70
2021/05/14 04:09:32;;;;;;;23.25;15.90;;;;;;;;;;4991600;28;20018;-70
2021/05/14 04:14:29;;;;;;;25.05;16.80;;;;;;;;;;4991594;28;20469;-70
2021/05/14 04:16:55;;;;;;;31.02;17.70;;;;;;;;;;4991637;28;20029;-70
2021/05/14 04:19:21;;;;;;;24.45;16.20;;;;;;;;;;4992640;28;20064;-70
2021/05/14 04:21:47;;;;;;;21.52;15.70;;;;;;;;;;4991487;28;20096;-70
2021/05/14 04:24:13;;;;;;;28.13;17.52;;;;;;;;;;4991384;28;20054;-70
2021/05/14 04:26:39;;;;;;;22.40;16.80;;;;;;;;;;4993576;28;20041;-70
2021/05/14 04:29:05;;;;;;;24.33;17.55;;;;;;;;;;4995076;28;20397;-70
2021/05/14 04:31:31;;;;;;;30.27;18.15;;;;;;;;;;4990977;28;20530;-70
2021/05/14 04:33:58;;;;;;;26.42;17.65;;;;;;;;;;5001032;28;20048;-70
2021/05/14 04:36:24;;;;;;;25.63;16.60;;;;;;;;;;4991532;28;20560;-70
2021/05/14 04:38:49;;;;;;;28.60;17.05;;;;;;;;;;4970067;28;20101;-70
2021/05/14 04:41:15;;;;;;;27.75;16.55;;;;;;;;;;4990817;28;20436;-71
2021/05/14 04:43:41;;;;;;;24.38;16.90;;;;;;;;;;4973303;28;20030;-70
2021/05/14 04:46:07;;;;;;;22.02;15.95;;;;;;;;;;4990612;28;20402;-70
2021/05/14 04:48:33;;;;;;;19.75;15.20;;;;;;;;;;4990742;28;20026;-70
2021/05/14 04:50:59;;;;;;;31.20;17.27;;;;;;;;;;4991243;28;20018;-70
2021/05/14 04:53:29;;;;;;;22.98;16.15;;;;;;;;;;4991278;28;20030;-70
2021/05/14 04:55:55;;;;;;;26.67;17.73;;;;;;;;;;4990024;28;20038;-70
2021/05/14 04:58:21;;;;;;;24.20;17.08;;;;;;;;;;4990083;28;20030;-70
2021/05/14 05:00:47;;;;;;;24.65;16.77;;;;;;;;;;4995417;28;20510;-70
2021/05/14 05:03:13;;;;;;;22.80;16.88;;;;;;;;;;4995801;28;20100;-69
2021/05/14 05:05:40;;;;;;;24.20;16.67;;;;;;;;;;4974465;28;20038;-69
2021/05/14 05:08:06;;;;;;;25.73;17.75;;;;;;;;;;4991613;28;20018;-70
2021/05/14 05:10:32;;;;;;;23.58;17.67;;;;;;;;;;4973178;28;20026;-69
2021/05/14 05:12:57;;;;;;;26.05;17.00;;;;;;;;;;4973614;28;20749;-69
2021/05/14 05:15:23;;;;;;;25.27;15.45;;;;;;;;;;4990458;28;20034;-70
2021/05/14 05:17:49;;;;;;;25.00;17.85;;;;;;;;;;4972601;28;20118;-69
2021/05/14 05:20:15;;;;;;;27.77;16.73;;;;;;;;;;4992086;28;20035;-69
2021/05/14 05:22:41;;;;;;;23.83;15.48;;;;;;;;;;4995422;28;20030;-69
2021/05/14 05:25:08;;;;;;;24.10;16.83;;;;;;;;;;4989999;28;20089;-69
2021/05/14 05:27:33;;;;;;;24.33;15.52;;;;;;;;;;4990616;28;20101;-69
2021/05/14 05:29:59;;;;;;;24.42;16.20;;;;;;;;;;4990467;28;20053;-69
2021/05/14 05:32:25;;;;;;;18.83;14.98;;;;;;;;;;4972963;28;20029;-70
2021/05/14 05:34:51;;;;;;;22.85;16.52;;;;;;;;;;4990556;28;20040;-69
2021/05/14 05:37:17;;;;;;;26.00;16.88;;;;;;;;;;4990615;28;20065;-70
2021/05/14 05:39:43;;;;;;;24.08;15.25;;;;;;;;;;4990057;28;20026;-69
2021/05/14 05:42:09;;;;;;;22.73;16.08;;;;;;;;;;4989524;28;20061;-69
2021/05/14 05:44:35;;;;;;;23.23;15.00;;;;;;;;;;4990298;28;20053;-69
2021/05/14 05:47:01;;;;;;;22.42;14.68;;;;;;;;;;4972903;28;20018;-69
2021/05/14 05:49:27;;;;;;;21.05;15.68;;;;;;;;;;4989887;28;20436;-69
2021/05/14 05:51:55;;;;;;;20.75;14.40;;;;;;;;;;4990740;28;20477;-69
2021/05/14 05:54:20;;;;;;;23.10;16.25;;;;;;;;;;4996990;28;20023;-70
2021/05/14 05:56:47;;;;;;;21.30;15.55;;;;;;;;;;4990213;28;20035;-70
2021/05/14 05:59:16;;;;;;;20.25;14.07;;;;;;;;;;4990291;28;20614;-70
2021/05/14 06:01:42;;;;;;;19.00;14.45;;;;;;;;;;4972588;28;20030;-69
2021/05/14 06:04:08;;;;;;;21.80;14.52;;;;;;;;;;4989996;28;20097;-70
2021/05/14 06:06:34;;;;;;;19.45;13.15;;;;;;;;;;4990054;28;20495;-69
2021/05/14 06:09:00;;;;;;;19.52;14.85;;;;;;;;;;4994642;28;20023;-69
2021/05/14 06:11:26;;;;;;;21.60;14.25;;;;;;;;;;4989860;28;20114;-69
2021/05/14 06:13:52;;;;;;;20.55;13.30;;;;;;;;;;4990156;28;20093;-70
2021/05/14 06:16:19;;;;;;;21.88;14.73;;;;;;;;;;4989582;28;20072;-69
2021/05/14 06:18:49;;;;;;;26.00;14.65;;;;;;;;;;4990145;28;20019;-69
2021/05/14 06:21:15;;;;;;;21.65;15.32;;;;;;;;;;4990497;28;20117;-69
2021/05/14 06:23:41;;;;;;;17.92;14.23;;;;;;;;;;4989796;28;20476;-70
2021/05/14 06:26:07;;;;;;;21.27;14.43;;;;;;;;;;4989945;28;20029;-70
2021/05/14 06:28:33;;;;;;;19.88;13.68;;;;;;;;;;4989526;28;20030;-69
2021/05/14 06:30:59;;;;;;;17.90;11.57;;;;;;;;;;4990401;28;20018;-70
2021/05/14 06:33:27;;;;;;;15.00;10.35;;;;;;;;;;4991877;28;20022;-69
2021/05/14 06:35:53;;;;;;;17.05;11.00;;;;;;;;;;4996179;28;20015;-69
2021/05/14 06:38:19;;;;;;;13.73;10.65;;;;;;;;;;5001083;28;20120;-70
2021/05/14 06:40:45;;;;;;;14.13;9.27;;;;;;;;;;4995940;28;20109;-69
2021/05/14 06:43:11;;;;;;;17.08;10.95;;;;;;;;;;4992810;28;20061;-69
2021/05/14 06:45:37;;;;;;;15.93;11.30;;;;;;;;;;5005695;28;20037;-70
2021/05/14 06:48:04;;;;;;;13.63;10.10;;;;;;;;;;5007465;28;20042;-70
2021/05/14 06:50:30;;;;;;;19.75;10.88;;;;;;;;;;4993291;28;20018;-69
2021/05/14 06:52:56;;;;;;;17.73;10.60;;;;;;;;;;4992787;28;20044;-69
2021/05/14 06:55:22;;;;;;;18.33;11.27;;;;;;;;;;4993489;28;20650;-69
2021/05/14 06:57:48;;;;;;;26.00;12.43;;;;;;;;;;4994954;28;20097;-69
2021/05/14 07:00:14;;;;;;;15.98;11.68;;;;;;;;;;4993339;28;20022;-69
2021/05/14 07:02:40;;;;;;;16.45;12.27;;;;;;;;;;4992631;28;20062;-69
2021/05/14 07:05:07;;;;;;;17.20;11.32;;;;;;;;;;4984806;28;20462;-69
2021/05/14 07:07:34;;;;;;;19.15;11.40;;;;;;;;;;4993139;28;20455;-70
2021/05/14 07:10:00;;;;;;;19.83;12.27;;;;;;;;;;4990809;28;20021;-70
2021/05/14 07:12:28;;;;;;;15.63;11.18;;;;;;;;;;4992735;28;20029;-69
2021/05/14 07:14:54;;;;;;;14.77;10.40;;;;;;;;;;4992264;28;20068;-69
2021/05/14 07:17:20;;;;;;;18.55;10.73;;;;;;;;;;4993794;28;20026;-69
2021/05/14 07:19:46;;;;;;;13.68;11.15;;;;;;;;;;4992640;28;20042;-69
2021/05/14 07:22:12;;;;;;;16.65;11.93;;;;;;;;;;4998310;28;20426;-69
2021/05/14 07:24:38;;;;;;;15.02;10.52;;;;;;;;;;4993379;28;20026;-69
2021/05/14 07:27:04;;;;;;;15.85;11.48;;;;;;;;;;4975203;28;20029;-69
2021/05/14 07:29:30;;;;;;;12.98;9.85;;;;;;;;;;4993284;28;20030;-69
2021/05/14 07:31:55;;;;;;;16.50;9.95;;;;;;;;;;4992551;28;20018;-69
2021/05/14 07:34:21;;;;;;;15.73;9.45;;;;;;;;;;4992514;28;20539;-69
2021/05/14 07:36:47;;;;;;;15.88;10.13;;;;;;;;;;4992984;28;20109;-69
2021/05/14 07:39:13;;;;;;;12.80;9.35;;;;;;;;;;4992580;28;20063;-69
2021/05/14 07:41:39;;;;;;;12.63;10.07;;;;;;;;;;4983027;28;20026;-69
2021/05/14 07:44:05;;;;;;;14.98;9.32;;;;;;;;;;4992244;28;20503;-70
2021/05/14 07:46:31;;;;;;;10.55;8.65;;;;;;;;;;4971071;28;20058;-69
2021/05/14 07:48:57;;;;;;;11.23;8.32;;;;;;;;;;4989123;28;20056;-69
2021/05/14 07:51:23;;;;;;;13.75;8.73;;;;;;;;;;4992578;28;20038;-69
2021/05/14 07:53:49;;;;;;;17.33;9.60;;;;;;;;;;4992138;28;20452;-69
2021/05/14 07:56:15;;;;;;;13.00;9.02;;;;;;;;;;4992654;28;20109;-69
2021/05/14 07:58:41;;;;;;;19.10;9.40;;;;;;;;;;4992878;28;20118;-69
2021/05/14 08:01:07;;;;;;;14.45;9.70;;;;;;;;;;4996698;28;20057;-69
2021/05/14 08:03:33;;;;;;;15.23;10.82;;;;;;;;;;4992189;28;20026;-69
2021/05/14 08:05:59;;;;;;;12.50;9.20;;;;;;;;;;4975581;28;20022;-69
2021/05/14 08:08:27;;;;;;;14.52;8.90;;;;;;;;;;4992164;28;20053;-69
2021/05/14 08:10:56;;;;;;;12.60;9.02;;;;;;;;;;4992269;28;20026;-69
2021/05/14 08:13:23;;;;;;;14.05;9.38;;;;;;;;;;4997547;28;20081;-69
2021/05/14 08:15:49;;;;;;;14.52;9.27;;;;;;;;;;4991707;28;20026;-70
2021/05/14 08:18:17;;;;;;;12.32;9.30;;;;;;;;;;4991829;28;20084;-69
2021/05/14 08:20:43;;;;;;;13.18;8.07;;;;;;;;;;4992239;28;20011;-69
2021/05/14 08:23:09;;;;;;;15.27;9.38;;;;;;;;;;4991570;28;20049;-69
2021/05/14 08:25:36;;;;;;;12.52;8.60;;;;;;;;;;4992117;28;20031;-69
2021/05/14 08:28:02;;;;;;;14.52;9.48;;;;;;;;;;4991564;28;20097;-69
2021/05/14 08:30:28;;;;;;;12.25;9.00;;;;;;;;;;4991751;28;20550;-69
2021/05/14 08:32:54;;;;;;;11.57;8.43;;;;;;;;;;4991744;28;20045;-69
2021/05/14 08:35:20;;;;;;;14.60;10.32;;;;;;;;;;4973402;28;20023;-69
2021/05/14 08:37:48;;;;;;;12.25;9.85;;;;;;;;;;4991189;28;20026;-69
2021/05/14 08:40:14;;;;;;;15.20;8.82;;;;;;;;;;4992350;28;20101;-69
2021/05/14 08:42:41;;;;;;;13.57;8.95;;;;;;;;;;4991499;28;20401;-69
2021/05/14 08:45:12;;;;;;;15.82;9.50;;;;;;;;;;4996542;28;20038;-71
2021/05/14 08:47:39;;;;;;;15.45;9.32;;;;;;;;;;4984979;28;20022;-69
2021/05/14 08:50:06;;;;;;;16.40;12.00;;;;;;;;;;4997427;28;20105;-71
2021/05/14 08:52:36;;;;;;;15.60;10.68;;;;;;;;;;4973900;28;20407;-69
2021/05/14 08:55:02;;;;;;;16.50;9.95;;;;;;;;;;4995730;28;20088;-70
2021/05/14 08:57:29;;;;;;;15.35;10.43;;;;;;;;;;4988626;28;20100;-71
2021/05/14 08:59:54;;;;;;;17.05;11.25;;;;;;;;;;5004824;28;20412;-71
2021/05/14 09:02:20;;;;;;;16.35;10.93;;;;;;;;;;5002924;28;20156;-70
2021/05/14 09:04:48;;;;;;;13.77;9.48;;;;;;;;;;5007675;28;20034;-71
2021/05/14 09:07:15;;;;;;;18.20;10.25;;;;;;;;;;5007646;28;20533;-71
2021/05/14 09:09:42;;;;;;;14.15;10.43;;;;;;;;;;5005641;28;20021;-71
2021/05/14 09:12:08;;;;;;;15.32;10.52;;;;;;;;;;4989463;28;20105;-70
2021/05/14 09:14:36;;;;;;;14.98;9.45;;;;;;;;;;5000176;28;20026;-70
2021/05/14 09:17:09;;;;;;;17.85;11.60;;;;;;;;;;5002659;28;20534;-71
2021/05/14 09:19:36;;;;;;;17.85;11.40;;;;;;;;;;5000365;28;20162;-71
2021/05/14 09:22:09;;;;;;;16.52;11.05;;;;;;;;;;5002772;28;20539;-71
2021/05/14 09:24:35;;;;;;;16.10;9.98;;;;;;;;;;5000469;28;20022;-71
2021/05/14 09:27:15;;;;;;;17.33;10.60;;;;;;;;;;4982645;28;20033;-71
2021/05/14 09:29:41;;;;;;;17.35;10.95;;;;;;;;;;4999564;28;20125;-71
2021/05/14 09:32:20;;;;;;;14.45;10.27;;;;;;;;;;4998436;28;20085;-71
2021/05/14 09:34:53;;;;;;;16.33;10.60;;;;;;;;;;5001310;28;20072;-71
2021/05/14 09:37:20;;;;;;;13.18;9.70;;;;;;;;;;4999079;28;20030;-71
2021/05/14 09:39:46;;;;;;;16.48;10.15;;;;;;;;;;5000789;28;20079;-71
2021/05/14 09:42:12;;;;;;;13.70;9.75;;;;;;;;;;4987769;28;20026;-71
2021/05/14 09:44:38;;;;;;;18.00;10.07;;;;;;;;;;5004872;28;20022;-71
2021/05/14 09:47:04;;;;;;;14.82;10.20;;;;;;;;;;5002780;28;20602;-71
2021/05/14 09:49:33;;;;;;;12.82;9.77;;;;;;;;;;4997395;28;20113;-71
2021/05/14 09:51:59;;;;;;;18.17;10.13;;;;;;;;;;4997990;28;20033;-71
2021/05/14 09:54:28;;;;;;;14.85;10.48;;;;;;;;;;4997278;28;20117;-70
2021/05/14 09:59:56;;;;;;;15.27;9.95;;;;;;;;;;5003573;28;20030;-71
2021/05/14 10:02:22;;;;;;;16.88;10.82;;;;;;;;;;4992582;28;20084;-71
2021/05/14 10:04:49;;;;;;;16.77;11.63;;;;;;;;;;4990865;28;20519;-71
2021/05/14 10:07:16;;;;;;;16.92;10.88;;;;;;;;;;4996399;28;20176;-71
2021/05/14 10:09:45;;;;;;;16.55;11.80;;;;;;;;;;5001788;28;20022;-71
2021/05/14 10:12:12;;;;;;;15.82;12.07;;;;;;;;;;5005743;28;20026;-71
2021/05/14 10:14:38;;;;;;;16.15;10.52;;;;;;;;;;5000961;28;20026;-71
2021/05/14 10:17:04;;;;;;;13.32;10.15;;;;;;;;;;5001400;28;20135;-71
2021/05/14 10:19:30;;;;;;;14.95;10.45;;;;;;;;;;4989827;28;20512;-71
2021/05/14 10:21:57;;;;;;;14.27;10.48;;;;;;;;;;5005490;28;20036;-71
2021/05/14 10:24:41;;;;;;;16.27;11.27;;;;;;;;;;4994010;28;20026;-71
2021/05/14 10:27:23;;;;;;;21.52;12.55;;;;;;;;;;4992632;28;20488;-71
2021/05/14 10:29:51;;;;;;;19.77;13.15;;;;;;;;;;4999782;28;20034;-71
2021/05/14 10:32:37;;;;;;;14.73;10.80;;;;;;;;;;4999158;28;20030;-71
2021/05/14 10:35:07;;;;;;;14.57;11.20;;;;;;;;;;4996223;28;20108;-70
2021/05/14 10:37:52;;;;;;;15.43;11.18;;;;;;;;;;5004964;28;20411;-69
2021/05/14 10:40:31;;;;;;;20.63;11.80;;;;;;;;;;5000331;28;20034;-69
2021/05/14 10:42:58;;;;;;;16.30;10.43;;;;;;;;;;5001894;28;20428;-69
2021/05/14 10:45:40;;;;;;;16.92;11.82;;;;;;;;;;5000869;28;20034;-69
2021/05/14 10:48:17;;;;;;;18.50;11.90;;;;;;;;;;4997482;28;20121;-69
2021/05/14 10:50:43;;;;;;;20.95;12.35;;;;;;;;;;4998777;28;20481;-69
2021/05/14 10:55:55;;;;;;;18.10;12.23;;;;;;;;;;5006773;28;20499;-69
2021/05/14 10:58:40;;;;;;;16.75;12.38;;;;;;;;;;5001443;28;20033;-69
2021/05/14 11:01:06;;;;;;;17.73;11.85;;;;;;;;;;5006825;28;20026;-69
2021/05/14 11:03:33;;;;;;;18.20;13.85;;;;;;;;;;5003472;28;20395;-69
2021/05/14 11:06:09;;;;;;;18.52;12.88;;;;;;;;;;5004660;28;20121;-69
2021/05/14 11:08:35;;;;;;;20.25;13.35;;;;;;;;;;4994711;28;20021;-70
2021/05/14 11:11:02;;;;;;;20.30;13.85;;;;;;;;;;5005025;28;20049;-70
2021/05/14 11:13:45;;;;;;;20.63;13.85;;;;;;;;;;5006686;28;20026;-69
2021/05/14 11:16:30;;;;;;;22.15;13.90;;;;;;;;;;5004261;28;20018;-70
2021/05/14 11:18:56;;;;;;;17.20;12.65;;;;;;;;;;5008035;28;20028;-70
2021/05/14 11:21:23;;;;;;;17.50;12.07;;;;;;;;;;4991878;28;20037;-70
2021/05/14 11:24:05;;;;;;;17.25;12.20;;;;;;;;;;4995903;28;20022;-70
2021/05/14 11:26:31;;;;;;;18.58;12.68;;;;;;;;;;5003057;28;20101;-70
2021/05/14 11:28:57;;;;;;;15.23;11.73;;;;;;;;;;5007274;28;20159;-70
2021/05/14 11:31:24;;;;;;;18.52;13.15;;;;;;;;;;4997444;28;20055;-70
2021/05/14 11:33:58;;;;;;;18.38;13.20;;;;;;;;;;4996952;28;20048;-70
2021/05/14 11:36:25;;;;;;;17.90;14.10;;;;;;;;;;5000336;28;20088;-69
2021/05/14 11:38:52;;;;;;;22.42;15.63;;;;;;;;;;4990646;28;20030;-69
2021/05/14 11:41:24;;;;;;;22.88;15.25;;;;;;;;;;4989968;28;20041;-69
2021/05/14 11:43:57;;;;;;;19.33;14.77;;;;;;;;;;5004196;28;20026;-69
2021/05/14 11:46:24;;;;;;;21.60;14.90;;;;;;;;;;4998626;28;20065;-69
2021/05/14 11:48:50;;;;;;;21.20;14.85;;;;;;;;;;5004519;28;20037;-69
2021/05/14 11:51:16;;;;;;;21.55;15.27;;;;;;;;;;5005801;28;20018;-69
2021/05/14 11:53:42;;;;;;;23.17;14.57;;;;;;;;;;5007672;28;20472;-69
2021/05/14 11:56:08;;;;;;;21.42;14.35;;;;;;;;;;5006532;28;20049;-69
2021/05/14 11:58:34;;;;;;;18.80;13.50;;;;;;;;;;4998140;28;20022;-70
2021/05/14 12:01:03;;;;;;;17.48;13.85;;;;;;;;;;5005956;28;20108;-71
2021/05/14 12:03:29;;;;;;;19.60;13.90;;;;;;;;;;5004819;28;20033;-69
2021/05/14 12:06:03;;;;;;;19.90;14.38;;;;;;;;;;4996857;28;20022;-69
2021/05/14 12:08:29;;;;;;;18.20;14.20;;;;;;;;;;5002711;28;20033;-69
2021/05/14 12:10:56;;;;;;;16.20;12.35;;;;;;;;;;5005112;28;20550;-69
2021/05/14 12:13:23;;;;;;;18.42;13.65;;;;;;;;;;5005784;28;20038;-69
2021/05/14 12:16:05;;;;;;;19.42;14.00;;;;;;;;;;5001065;28;20022;-69
2021/05/14 12:18:32;;;;;;;20.65;13.43;;;;;;;;;;4991137;28;20018;-69
2021/05/14 12:21:00;;;;;;;21.17;13.05;;;;;;;;;;4991021;28;20431;-69
2021/05/14 12:23:26;;;;;;;17.67;12.75;;;;;;;;;;4991539;28;20036;-69
2021/05/14 12:25:58;;;;;;;20.05;13.35;;;;;;;;;;5005288;28;20068;-69
2021/05/14 12:28:34;;;;;;;23.25;14.85;;;;;;;;;;4998257;28;20018;-68
2021/05/14 12:31:01;;;;;;;21.05;13.93;;;;;;;;;;5001036;28;20108;-70
2021/05/14 12:33:27;;;;;;;18.27;12.90;;;;;;;;;;4988759;28;20073;-69
2021/05/14 12:36:07;;;;;;;17.63;13.30;;;;;;;;;;4990403;28;20116;-69
2021/05/14 12:38:50;;;;;;;19.10;13.20;;;;;;;;;;4988005;28;20092;-69
2021/05/14 12:41:23;;;;;;;17.50;13.35;;;;;;;;;;4990233;28;20026;-70
2021/05/14 12:43:50;;;;;;;16.42;11.88;;;;;;;;;;4988666;28;20623;-69
2021/05/14 12:46:15;;;;;;;17.27;12.30;;;;;;;;;;4988722;28;20065;-69
2021/05/14 12:48:41;;;;;;;14.85;11.20;;;;;;;;;;4989827;28;20031;-69
2021/05/14 12:51:07;;;;;;;18.48;12.25;;;;;;;;;;4988067;28;20022;-70
2021/05/14 12:53:33;;;;;;;17.98;12.70;;;;;;;;;;4990753;28;20034;-70
2021/05/14 12:56:00;;;;;;;19.23;13.15;;;;;;;;;;4987421;28;20033;-70
2021/05/14 12:58:25;;;;;;;16.02;12.85;;;;;;;;;;4990722;28;20029;-70
2021/05/14 13:00:51;;;;;;;15.77;10.77;;;;;;;;;;4989210;28;20030;-69
2021/05/14 13:03:27;;;;;;;17.33;11.57;;;;;;;;;;4991455;28;20366;-69
2021/05/14 13:05:54;;;;;;;14.63;11.25;;;;;;;;;;4988852;28;20019;-70
2021/05/14 13:08:21;;;;;;;15.35;11.55;;;;;;;;;;4989897;28;20029;-68
2021/05/14 13:11:01;;;;;;;14.70;10.18;;;;;;;;;;4989773;28;20026;-68
2021/05/14 13:13:28;;;;;;;15.10;11.45;;;;;;;;;;4990869;28;20022;-68
2021/05/14 13:15:57;;;;;;;16.67;11.15;;;;;;;;;;4992780;28;20029;-68
2021/05/14 13:18:25;;;;;;;16.80;11.23;;;;;;;;;;4994793;28;20022;-68
2021/05/14 13:20:51;;;;;;;16.83;11.57;;;;;;;;;;4992885;28;20042;-68
2021/05/14 13:23:17;;;;;;;15.82;11.88;;;;;;;;;;4973624;28;20031;-68
2021/05/14 13:25:43;;;;;;;19.27;9.98;;;;;;;;;;4989735;28;20030;-69
2021/05/14 13:28:09;;;;;;;13.15;9.43;;;;;;;;;;4989522;28;20030;-69
2021/05/14 13:30:35;;;;;;;14.55;9.00;;;;;;;;;;4976370;28;20059;-69
2021/05/14 13:33:01;;;;;;;12.20;8.13;;;;;;;;;;4992076;28;20026;-69
2021/05/14 13:35:27;;;;;;;15.00;8.65;;;;;;;;;;4989782;28;20027;-69
2021/05/14 13:37:53;;;;;;;10.63;8.15;;;;;;;;;;4992543;28;20108;-68
2021/05/14 13:40:19;;;;;;;13.02;8.73;;;;;;;;;;4994219;28;20065;-69
2021/05/14 13:42:45;;;;;;;14.27;8.10;;;;;;;;;;4992624;28;20062;-69
2021/05/14 13:45:11;;;;;;;12.65;8.40;;;;;;;;;;4994132;28;20038;-69
2021/05/14 13:47:37;;;;;;;9.48;7.15;;;;;;;;;;4994102;28;20083;-69
2021/05/14 13:50:04;;;;;;;11.73;7.55;;;;;;;;;;4990590;28;20499;-68
2021/05/14 13:52:30;;;;;;;13.45;6.80;;;;;;;;;;4989311;28;20031;-68
2021/05/14 13:54:56;;;;;;;10.02;5.85;;;;;;;;;;4989278;28;20025;-71
2021/05/14 13:57:22;;;;;;;8.57;6.63;;;;;;;;;;4982482;28;20165;-69
2021/05/14 13:59:47;;;;;;;11.50;6.05;;;;;;;;;;4992294;28;20499;-69
2021/05/14 14:02:15;;;;;;;9.88;6.28;;;;;;;;;;4995129;28;20023;-68
2021/05/14 14:04:41;;;;;;;8.85;5.10;;;;;;;;;;4995273;28;20022;-68
2021/05/14 14:07:07;;;;;;;11.25;5.78;;;;;;;;;;4997612;28;20400;-68
2021/05/14 14:09:33;;;;;;;7.85;5.30;;;;;;;;;;4991373;28;20029;-69
2021/05/14 14:12:01;;;;;;;8.18;5.25;;;;;;;;;;5004952;28;20527;-69
2021/05/14 14:14:27;;;;;;;10.85;5.70;;;;;;;;;;4999643;28;20034;-68
2021/05/14 14:16:53;;;;;;;7.13;4.28;;;;;;;;;;4998257;28;20018;-69
2021/05/14 14:19:19;;;;;;;12.68;5.15;;;;;;;;;;5008006;28;20035;-69
2021/05/14 14:21:47;;;;;;;5.82;3.20;;;;;;;;;;5010286;28;21620;-69
2021/05/14 14:24:13;;;;;;;8.80;6.05;;;;;;;;;;5003567;28;20105;-69
2021/05/14 14:26:40;;;;;;;11.20;6.78;;;;;;;;;;5005909;28;20034;-69
2021/05/14 14:29:06;;;;;;;11.10;6.70;;;;;;;;;;4999180;28;20097;-70